createdAt,value
2019-05-20T00:02:28.624Z,16.30
2019-05-20T00:17:29.104Z,18.50
2019-05-20T00:32:40.705Z,17.90
2019-05-20T00:47:34.476Z,18.20
2019-05-20T01:02:34.640Z,20.00
2019-05-20T01:17:34.842Z,20.20
2019-05-20T01:32:35.069Z,21.10
2019-05-20T01:47:35.195Z,22.00
2019-05-20T02:02:35.372Z,20.40
2019-05-20T02:17:35.622Z,20.00
2019-05-20T02:32:35.826Z,22.40
2019-05-20T02:47:36.046Z,24.70
2019-05-20T03:02:36.269Z,25.90
2019-05-20T03:17:36.341Z,26.10
2019-05-20T03:32:36.513Z,28.20
2019-05-20T03:47:36.600Z,28.50
2019-05-20T04:02:37.226Z,25.90
2019-05-20T04:17:37.373Z,27.70
2019-05-20T04:32:37.509Z,29.50
2019-05-20T04:47:37.723Z,27.50
2019-05-20T05:02:37.929Z,25.40
2019-05-20T05:17:38.051Z,23.60
2019-05-20T05:32:38.230Z,23.20
2019-05-20T05:47:38.310Z,22.30
2019-05-20T06:02:38.461Z,19.00
2019-05-20T06:17:38.644Z,18.70
2019-05-20T06:32:38.774Z,17.00
2019-05-20T06:47:38.934Z,15.50
2019-05-20T07:02:39.064Z,14.70
2019-05-20T07:17:39.181Z,12.30
2019-05-20T07:32:39.291Z,11.00
2019-05-20T07:47:39.406Z,10.90
2019-05-20T08:02:39.483Z,8.80
2019-05-20T08:17:39.711Z,7.80
2019-05-20T08:32:39.808Z,9.30
2019-05-20T08:47:40.450Z,6.40
2019-05-20T09:02:40.663Z,6.10
2019-05-20T09:17:40.836Z,5.50
2019-05-20T09:32:42.986Z,5.20
2019-05-20T09:47:43.129Z,5.40
2019-05-20T10:02:43.228Z,5.50
2019-05-20T10:17:43.426Z,6.60
2019-05-20T10:32:43.538Z,4.90
2019-05-20T10:47:43.654Z,5.00
2019-05-20T11:02:43.845Z,5.10
2019-05-20T11:17:43.961Z,4.20
2019-05-20T11:32:44.084Z,5.30
2019-05-20T11:47:44.273Z,5.90
2019-05-20T12:02:44.490Z,5.70
2019-05-20T12:17:44.800Z,5.70
2019-05-20T12:32:44.958Z,6.00
2019-05-20T12:47:45.204Z,5.60
2019-05-20T13:02:45.437Z,6.80
2019-05-20T13:17:45.742Z,5.40
2019-05-20T13:32:45.724Z,5.20
2019-05-20T13:47:45.851Z,5.50
2019-05-20T14:02:46.038Z,14.70
2019-05-20T14:17:46.626Z,8.80
2019-05-20T14:32:47.411Z,10.50
2019-05-20T14:47:47.597Z,9.20
2019-05-20T15:02:47.715Z,12.70
2019-05-20T15:17:47.910Z,17.70
2019-05-20T15:32:48.084Z,20.30
2019-05-20T15:47:48.229Z,22.40
2019-05-20T16:02:48.454Z,25.10
2019-05-20T16:17:48.887Z,22.90
2019-05-20T16:32:48.738Z,18.90
2019-05-20T16:47:48.929Z,16.40
2019-05-20T17:02:49.132Z,18.50
2019-05-20T17:17:49.253Z,20.30
2019-05-20T17:32:49.479Z,14.80
2019-05-20T17:47:49.613Z,11.50
2019-05-20T18:02:49.761Z,10.40
2019-05-20T18:17:49.911Z,11.30
2019-05-20T18:32:50.091Z,12.10
2019-05-20T18:47:50.212Z,13.60
2019-05-20T19:02:50.434Z,16.30
2019-05-20T19:17:50.550Z,18.60
2019-05-20T19:32:50.736Z,23.70
2019-05-20T19:47:50.879Z,27.20
2019-05-20T20:02:51.023Z,29.40
2019-05-20T20:17:51.167Z,31.00
2019-05-20T20:32:51.282Z,31.40
2019-05-20T20:47:51.409Z,38.60
2019-05-20T21:02:53.606Z,34.70
2019-05-20T21:17:53.753Z,38.20
2019-05-20T21:33:08.247Z,38.70
2019-05-20T21:47:59.143Z,38.50
2019-05-20T22:02:59.295Z,45.70
2019-05-20T22:17:59.417Z,55.80
2019-05-20T22:32:59.678Z,38.80
2019-05-20T22:47:59.859Z,63.20
2019-05-20T23:02:59.976Z,52.10
2019-05-20T23:18:00.198Z,54.70
2019-05-20T23:33:00.352Z,180.60
2019-05-20T23:48:00.508Z,142.60
